createdAt,value
2023-04-09T00:01:11.918Z,101668.31
2023-04-09T00:06:11.643Z,101685.25
2023-04-09T00:11:08.507Z,101722.41
2023-04-09T00:16:05.956Z,101666.88
2023-04-09T00:21:02.933Z,101663.50
2023-04-09T00:26:01.246Z,101725.72
2023-04-09T00:30:58.343Z,101658.25
2023-04-09T00:35:55.651Z,101720.41
2023-04-09T00:40:52.629Z,101718.56
2023-04-09T00:45:50.922Z,101722.56
2023-04-09T00:50:47.841Z,101691.28
2023-04-09T00:55:45.251Z,101693.22
2023-04-09T01:00:42.205Z,101659.00
2023-04-09T01:05:48.102Z,101660.34
2023-04-09T01:10:57.735Z,101719.22
2023-04-09T01:15:57.351Z,101653.47
2023-04-09T01:20:59.396Z,101723.06
2023-04-09T01:26:04.934Z,101709.66
2023-04-09T01:31:15.520Z,101721.50
2023-04-09T01:36:15.499Z,101718.97
2023-04-09T01:41:17.094Z,101623.09
2023-04-09T01:46:16.578Z,101699.59
2023-04-09T01:51:13.991Z,101697.47
2023-04-09T01:56:11.333Z,101705.31
2023-04-09T02:01:14.425Z,101694.63
2023-04-09T02:06:15.716Z,101673.75
2023-04-09T02:11:14.633Z,101624.75
2023-04-09T02:16:13.955Z,101700.84
2023-04-09T02:21:13.145Z,101680.84
2023-04-09T02:26:10.733Z,101668.84
2023-04-09T02:31:11.055Z,101603.75
2023-04-09T02:36:11.635Z,101669.66
2023-04-09T02:41:08.589Z,101698.34
2023-04-09T02:46:07.108Z,101704.28
2023-04-09T02:51:05.769Z,101677.00
2023-04-09T02:56:02.969Z,101660.59
2023-04-09T03:00:59.951Z,101703.22
2023-04-09T03:05:57.705Z,101681.50
2023-04-09T03:10:54.709Z,101628.41
2023-04-09T03:15:52.843Z,101671.97
2023-04-09T03:20:49.795Z,101697.88
2023-04-09T03:25:47.528Z,101706.56
2023-04-09T03:30:47.085Z,101669.81
2023-04-09T03:35:45.100Z,101709.56
2023-04-09T03:40:43.344Z,101746.16
2023-04-09T03:45:41.160Z,101729.16
2023-04-09T03:50:53.604Z,101649.19
2023-04-09T03:55:58.957Z,101731.41
2023-04-09T04:00:57.914Z,101740.31
2023-04-09T04:06:21.022Z,101757.09
2023-04-09T04:11:30.264Z,101757.56
2023-04-09T04:16:29.576Z,101738.28
2023-04-09T04:21:27.277Z,101744.66
2023-04-09T04:26:31.105Z,101666.47
2023-04-09T04:31:29.023Z,101759.81
2023-04-09T04:36:28.622Z,101760.34
2023-04-09T04:41:25.674Z,101763.38
2023-04-09T04:46:34.032Z,101751.09
2023-04-09T04:51:31.331Z,101741.63
2023-04-09T04:56:36.582Z,101766.53
2023-04-09T05:01:42.823Z,101723.66
2023-04-09T05:06:42.434Z,101763.13
2023-04-09T05:11:43.769Z,101758.41
2023-04-09T05:16:47.351Z,101662.53
2023-04-09T05:22:04.166Z,101702.03
2023-04-09T05:27:01.372Z,101724.31
2023-04-09T05:32:00.766Z,101732.25
2023-04-09T05:37:02.952Z,101738.63
2023-04-09T05:42:00.525Z,101730.75
2023-04-09T05:47:10.570Z,101770.75
2023-04-09T05:57:33.926Z,101771.69
2023-04-09T06:02:35.911Z,101711.13
2023-04-09T06:07:33.181Z,101741.94
2023-04-09T06:12:30.218Z,101769.78
2023-04-09T06:17:52.069Z,101717.63
2023-04-09T06:22:50.676Z,101713.72
2023-04-09T06:27:52.175Z,101768.09
2023-04-09T06:32:54.937Z,101709.31
2023-04-09T06:37:56.099Z,101695.44
2023-04-09T06:42:59.186Z,101748.44
2023-04-09T06:48:37.757Z,101768.88
2023-04-09T06:53:35.241Z,101676.78
2023-04-09T06:58:35.071Z,101722.56
2023-04-09T07:03:33.248Z,101760.72
2023-04-09T07:08:30.587Z,101715.97
2023-04-09T07:18:25.575Z,101708.72
2023-04-09T07:23:23.314Z,101719.50
2023-04-09T07:28:20.628Z,101762.78
2023-04-09T07:33:17.819Z,101750.75
2023-04-09T07:38:15.744Z,101771.88
2023-04-09T07:43:13.386Z,101771.53
2023-04-09T07:48:10.229Z,101709.41
2023-04-09T07:53:07.131Z,101770.19
2023-04-09T07:58:07.225Z,101769.22
2023-04-09T08:03:11.062Z,101735.19
2023-04-09T08:08:09.743Z,101758.56
2023-04-09T08:13:11.507Z,101766.53
2023-04-09T08:18:11.329Z,101756.63
2023-04-09T08:23:26.464Z,101718.25
2023-04-09T08:28:32.083Z,101747.81
2023-04-09T08:33:37.636Z,101695.94
2023-04-09T08:38:34.618Z,101720.47
2023-04-09T08:43:52.511Z,101743.13
2023-04-09T08:48:52.650Z,101718.44
2023-04-09T08:54:00.768Z,101745.31
2023-04-09T08:59:00.535Z,101761.44
2023-04-09T09:04:01.193Z,101704.47
2023-04-09T09:09:07.376Z,101697.13
2023-04-09T09:14:06.167Z,101646.25
2023-04-09T09:19:07.030Z,101658.84
2023-04-09T09:24:17.098Z,101657.13
2023-04-09T09:29:16.753Z,101691.38
2023-04-09T09:34:19.971Z,101722.31
2023-04-09T09:39:21.690Z,101665.31
2023-04-09T09:44:34.169Z,101730.94
2023-04-09T09:49:32.839Z,101734.59
2023-04-09T09:54:41.656Z,101721.91
2023-04-09T09:59:43.420Z,101701.38
2023-04-09T10:04:42.588Z,101679.53
2023-04-09T10:09:48.758Z,101685.75
2023-04-09T10:14:46.252Z,101701.00
2023-04-09T10:19:52.855Z,101673.66
2023-04-09T10:24:50.706Z,101692.34
2023-04-09T10:29:48.790Z,101720.59
2023-04-09T10:34:48.684Z,101676.09
2023-04-09T10:39:47.378Z,101649.03
2023-04-09T10:44:45.008Z,101709.44
2023-04-09T10:49:42.769Z,101659.88
2023-04-09T10:54:44.825Z,101641.50
2023-04-09T10:59:45.042Z,101664.56
2023-04-09T11:05:03.393Z,101593.06
2023-04-09T11:10:01.491Z,101634.63
2023-04-09T11:14:58.614Z,101611.03
2023-04-09T11:19:55.926Z,101629.91
2023-04-09T11:24:54.561Z,101614.97
2023-04-09T11:30:00.216Z,101585.16
2023-04-09T11:34:59.370Z,101593.00
2023-04-09T11:39:57.979Z,101572.94
2023-04-09T11:44:57.666Z,101658.06
2023-04-09T11:49:54.810Z,101644.31
2023-04-09T11:54:51.783Z,101633.06
2023-04-09T11:59:48.769Z,101590.09
2023-04-09T12:04:50.612Z,101615.69
2023-04-09T12:09:48.638Z,101640.38
2023-04-09T12:14:46.326Z,101595.66
2023-04-09T12:19:43.237Z,101604.47
2023-04-09T12:24:41.022Z,101595.53
2023-04-09T12:29:37.989Z,101543.31
2023-04-09T12:34:35.560Z,101574.03
2023-04-09T12:39:34.280Z,101572.78
2023-04-09T12:44:33.251Z,101559.59
2023-04-09T12:49:30.647Z,101569.09
2023-04-09T12:54:27.621Z,101587.59
2023-04-09T12:59:24.688Z,101550.84
2023-04-09T13:04:22.353Z,101589.38
2023-04-09T13:09:19.440Z,101549.78
2023-04-09T13:14:19.337Z,101570.47
2023-04-09T13:19:16.415Z,101550.44
2023-04-09T13:24:14.836Z,101521.50
2023-04-09T13:29:11.915Z,101509.19
2023-04-09T13:34:09.972Z,101543.44
2023-04-09T13:39:08.532Z,101565.69
2023-04-09T13:44:12.120Z,101516.56
2023-04-09T14:35:36.859Z,101488.63
2023-04-09T14:40:33.818Z,101527.41
2023-04-09T14:45:31.006Z,101508.03
2023-04-09T14:50:31.900Z,101543.03
2023-04-09T14:55:29.891Z,101521.84
2023-04-09T15:00:26.702Z,101528.56
2023-04-09T15:05:27.645Z,101455.00
2023-04-09T15:10:27.521Z,101492.41
2023-04-09T15:15:25.374Z,101520.63
2023-04-09T15:25:06.279Z,101519.31
2023-04-09T15:30:04.080Z,101486.66
2023-04-09T15:35:06.852Z,101488.66
2023-04-09T15:40:08.686Z,101458.88
2023-04-09T15:45:07.018Z,101436.44
2023-04-09T15:50:04.753Z,101427.47
2023-04-09T15:55:06.067Z,101411.53
2023-04-09T16:00:11.747Z,101425.84
2023-04-09T16:10:32.593Z,101443.66
2023-04-09T16:15:37.367Z,101462.22
2023-04-09T16:20:58.910Z,101425.38
2023-04-09T16:26:19.480Z,101474.72
2023-04-09T16:31:23.052Z,101478.22
2023-04-09T16:36:56.328Z,101497.50
2023-04-09T16:48:24.887Z,101426.66
2023-04-09T16:53:26.151Z,101434.63
2023-04-09T16:58:32.518Z,101501.19
2023-04-09T17:03:58.102Z,101514.00
2023-04-09T17:15:19.515Z,101428.34
2023-04-09T17:20:41.758Z,101492.16
2023-04-09T17:26:05.033Z,101526.53
2023-04-09T17:31:46.099Z,101495.78
2023-04-09T17:43:12.878Z,101549.75
2023-04-09T18:01:08.110Z,101498.38
2023-04-09T18:12:06.585Z,101560.91
2023-04-09T18:17:28.619Z,101542.50
2023-04-09T18:36:17.779Z,101562.94
2023-04-09T18:48:38.459Z,101574.91
2023-04-09T18:59:57.995Z,101546.16
2023-04-09T19:05:32.037Z,101516.16
2023-04-09T19:11:06.520Z,101519.97
2023-04-09T19:23:53.261Z,101572.78
2023-04-09T19:30:19.086Z,101501.78
2023-04-09T19:35:41.575Z,101523.41
2023-04-09T19:41:42.087Z,101530.28
2023-04-09T19:46:49.326Z,101539.63
2023-04-09T19:52:20.632Z,101518.44
2023-04-09T19:57:53.162Z,101566.50
2023-04-09T20:03:21.524Z,101538.59
2023-04-09T20:08:31.390Z,101555.31
2023-04-09T20:13:35.415Z,101564.25
2023-04-09T20:25:29.870Z,101587.91
2023-04-09T20:30:48.993Z,101545.00
2023-04-09T20:42:16.365Z,101594.63
2023-04-09T20:47:22.878Z,101525.41
2023-04-09T20:52:34.360Z,101595.66
2023-04-09T20:58:13.097Z,101599.75
2023-04-09T21:03:23.938Z,101498.41
2023-04-09T21:20:16.862Z,101496.28
2023-04-09T21:30:57.495Z,101592.59
2023-04-09T21:36:24.575Z,101603.09
2023-04-09T21:41:34.410Z,101590.91
2023-04-09T21:46:40.118Z,101552.16
2023-04-09T21:51:51.157Z,101518.47
2023-04-09T21:57:28.126Z,101552.75
2023-04-09T22:02:34.968Z,101597.75
2023-04-09T22:07:39.778Z,101599.28
2023-04-09T22:12:54.685Z,101605.53
2023-04-09T22:18:01.991Z,101577.22
2023-04-09T22:23:02.778Z,101601.25
2023-04-09T22:28:04.853Z,101503.97
2023-04-09T22:33:09.200Z,101579.22
2023-04-09T22:38:15.417Z,101530.53
2023-04-09T22:43:12.906Z,101483.84
2023-04-09T22:48:16.306Z,101508.16
2023-04-09T22:58:40.651Z,101509.34
2023-04-09T23:03:52.094Z,101583.97
2023-04-09T23:15:01.719Z,101494.34
2023-04-09T23:20:19.686Z,101578.84
2023-04-09T23:25:44.114Z,101506.22
2023-04-09T23:30:48.345Z,101490.03
2023-04-09T23:36:03.347Z,101466.22
2023-04-09T23:41:23.540Z,101548.91
2023-04-09T23:46:27.994Z,101505.84
2023-04-09T23:51:35.057Z,101551.34
2023-04-09T23:56:44.488Z,101458.03
